Soapstone Mountain, North Carolina
Current Conditions -  °F | °C
As of 1:15 PM on Monday 22 Dec 2014 (Local Time) from K5W8 Reporting Station
Haze Haze  
Wind Chill: 30°   Ceiling: 300
Heat Index: 36°   Visibility: 3mi
Dew Point: 36°   Wind: 8mph
Humidity: 99%   Direction: 20°NNE
Pressure: 30.08"   Gusts: NA
Location:  35.8007°N, 79.5885°W
Report Text: K5W8 221815Z AUTO 02007KT 3SM BR OVC003 02/02 A3008 RMK AO2 T00230022
Loading
Personal Weather Stations






























Interactive Weather Map New forecast layout! Learn more

10-Day Weather Forecast

Advertisements
Track Severe Weather on mobile